Time;durP1;ratioP1;P1;durP2;ratioP2;P2;SDS_P1;SDS_P2;PMS_P1;PMS_P2;Temp;Humidity;BMP_temperature;BMP_pressure;BME280_temperature;BME280_humidity;BME280_pressure;Samples;Min_cycle;Max_cycle;Signal;HPM_P1;HPM_P2
2021/01/28 00:01:05;;;;;;;61.97;24.67;;;;;;;;;;4994337;28;20285;-77
2021/01/28 00:03:31;;;;;;;56.87;23.87;;;;;;;;;;4976542;28;20184;-77
2021/01/28 00:05:57;;;;;;;65.50;24.93;;;;;;;;;;4996101;28;20203;-77
2021/01/28 00:08:23;;;;;;;63.17;25.67;;;;;;;;;;4995705;28;20176;-77
2021/01/28 00:10:49;;;;;;;65.57;24.87;;;;;;;;;;4979511;28;20595;-77
2021/01/28 00:13:20;;;;;;;72.73;27.13;;;;;;;;;;4996510;28;20203;-77
2021/01/28 00:15:46;;;;;;;74.00;26.53;;;;;;;;;;4996196;28;20200;-77
2021/01/28 00:18:12;;;;;;;70.33;28.13;;;;;;;;;;4980478;28;20180;-77
2021/01/28 00:20:42;;;;;;;77.67;28.53;;;;;;;;;;4996513;28;20191;-77
2021/01/28 00:23:08;;;;;;;81.63;29.23;;;;;;;;;;4996342;28;20714;-77
2021/01/28 00:25:38;;;;;;;85.07;28.53;;;;;;;;;;4997921;28;20294;-77
2021/01/28 00:28:04;;;;;;;86.63;29.73;;;;;;;;;;4997254;28;20177;-76
2021/01/28 00:30:35;;;;;;;84.27;28.97;;;;;;;;;;4996864;28;20212;-77
2021/01/28 00:33:01;;;;;;;94.33;30.30;;;;;;;;;;4980797;28;20180;-77
2021/01/28 00:35:30;;;;;;;82.57;28.27;;;;;;;;;;4995442;28;20222;-77
2021/01/28 00:37:56;;;;;;;80.87;28.87;;;;;;;;;;4979933;28;20601;-77
2021/01/28 00:40:23;;;;;;;86.77;30.43;;;;;;;;;;4979598;28;20222;-76
2021/01/28 00:42:49;;;;;;;90.17;30.07;;;;;;;;;;4979737;28;20187;-77
2021/01/28 00:45:18;;;;;;;89.50;30.53;;;;;;;;;;4997221;28;20196;-77
2021/01/28 00:47:44;;;;;;;93.80;31.53;;;;;;;;;;4995743;28;20176;-77
2021/01/28 00:50:10;;;;;;;94.40;31.63;;;;;;;;;;4995719;28;20208;-77
2021/01/28 00:52:41;;;;;;;99.73;32.13;;;;;;;;;;4995375;28;20658;-76
2021/01/28 00:55:11;;;;;;;93.83;30.80;;;;;;;;;;4996021;28;20212;-77
2021/01/28 00:57:37;;;;;;;97.73;29.97;;;;;;;;;;4995738;28;20194;-77
2021/01/28 01:00:28;;;;;;;92.27;29.80;;;;;;;;;;4978758;28;20631;-77
2021/01/28 01:02:54;;;;;;;86.60;28.90;;;;;;;;;;4994267;28;20271;-77
2021/01/28 01:05:21;;;;;;;90.80;30.03;;;;;;;;;;4979521;28;20751;-77
2021/01/28 01:07:47;;;;;;;84.77;30.23;;;;;;;;;;4995753;28;20187;-76
2021/01/28 01:10:23;;;;;;;92.87;31.30;;;;;;;;;;4996293;28;20203;-77
2021/01/28 01:12:50;;;;;;;86.93;28.53;;;;;;;;;;4995680;28;20238;-77
2021/01/28 01:15:16;;;;;;;110.17;34.20;;;;;;;;;;4979272;28;20200;-77
2021/01/28 01:17:42;;;;;;;94.13;31.77;;;;;;;;;;4977910;28;20190;-77
2021/01/28 01:20:10;;;;;;;98.70;32.73;;;;;;;;;;4996717;28;20188;-77
2021/01/28 01:22:36;;;;;;;96.30;30.67;;;;;;;;;;4978676;28;20227;-77
2021/01/28 01:25:02;;;;;;;92.50;29.27;;;;;;;;;;4997180;28;20258;-77
2021/01/28 01:27:28;;;;;;;97.13;31.40;;;;;;;;;;4996026;28;20640;-77
2021/01/28 01:29:54;;;;;;;101.07;32.80;;;;;;;;;;4979496;28;20212;-77
2021/01/28 01:32:20;;;;;;;97.47;32.70;;;;;;;;;;4994986;28;20216;-77
2021/01/28 01:34:49;;;;;;;97.73;31.23;;;;;;;;;;4978595;28;20694;-77
2021/01/28 01:37:17;;;;;;;98.40;31.97;;;;;;;;;;4979148;28;20215;-77
2021/01/28 01:39:43;;;;;;;94.70;30.83;;;;;;;;;;4994069;28;20244;-77
2021/01/28 01:42:09;;;;;;;94.23;32.37;;;;;;;;;;4995983;28;20585;-77
2021/01/28 01:44:35;;;;;;;98.87;30.23;;;;;;;;;;4978721;28;20212;-77
2021/01/28 01:47:06;;;;;;;95.53;30.87;;;;;;;;;;4979283;28;20195;-78
2021/01/28 01:49:35;;;;;;;89.80;30.80;;;;;;;;;;4994848;28;20283;-77
2021/01/28 01:52:01;;;;;;;86.33;29.30;;;;;;;;;;4996333;28;20180;-77
2021/01/28 01:54:33;;;;;;;90.53;30.33;;;;;;;;;;4994457;28;20745;-78
2021/01/28 01:57:04;;;;;;;90.57;30.53;;;;;;;;;;4977663;28;20552;-77
2021/01/28 01:59:36;;;;;;;91.00;30.53;;;;;;;;;;4993611;28;20181;-77
2021/01/28 02:02:09;;;;;;;92.33;31.23;;;;;;;;;;4994863;28;20177;-77
2021/01/28 02:04:35;;;;;;;103.43;31.27;;;;;;;;;;4994414;28;20687;-77
2021/01/28 02:07:03;;;;;;;85.37;29.73;;;;;;;;;;4995850;28;20177;-77
2021/01/28 02:09:29;;;;;;;99.20;31.37;;;;;;;;;;4993703;28;20550;-77
2021/01/28 02:11:59;;;;;;;86.23;30.03;;;;;;;;;;4979064;28;20178;-77
2021/01/28 02:14:26;;;;;;;91.63;30.40;;;;;;;;;;4995242;28;20196;-77
2021/01/28 02:16:57;;;;;;;90.03;32.00;;;;;;;;;;4978841;28;20271;-77
2021/01/28 02:19:23;;;;;;;94.00;30.53;;;;;;;;;;4994695;28;20192;-77
2021/01/28 02:21:49;;;;;;;91.87;31.03;;;;;;;;;;4994351;28;20180;-77
2021/01/28 02:24:33;;;;;;;93.40;31.87;;;;;;;;;;4994814;28;20200;-77
2021/01/28 02:26:59;;;;;;;98.63;31.37;;;;;;;;;;4996079;28;20184;-77
2021/01/28 02:29:25;;;;;;;95.53;30.80;;;;;;;;;;4978055;28;20263;-77
2021/01/28 02:31:53;;;;;;;90.60;31.03;;;;;;;;;;4978048;28;20635;-77
2021/01/28 02:34:19;;;;;;;92.17;31.00;;;;;;;;;;4995223;28;20207;-77
2021/01/28 02:36:45;;;;;;;92.37;30.17;;;;;;;;;;4995213;28;20190;-77
2021/01/28 02:39:12;;;;;;;92.77;31.27;;;;;;;;;;4994726;28;20212;-77
2021/01/28 02:41:38;;;;;;;92.37;31.60;;;;;;;;;;4993435;28;20188;-77
2021/01/28 02:44:04;;;;;;;102.07;31.83;;;;;;;;;;4977953;28;20315;-77
2021/01/28 02:46:30;;;;;;;97.97;31.40;;;;;;;;;;4995743;28;20188;-77
2021/01/28 02:48:56;;;;;;;109.50;35.47;;;;;;;;;;4995827;28;20697;-78
2021/01/28 02:51:25;;;;;;;105.83;33.07;;;;;;;;;;4994933;28;20231;-77
2021/01/28 02:53:54;;;;;;;116.77;34.73;;;;;;;;;;4994814;28;20186;-77
2021/01/28 02:56:21;;;;;;;110.17;34.00;;;;;;;;;;4994128;28;20207;-77
2021/01/28 02:58:47;;;;;;;114.53;35.27;;;;;;;;;;4977269;28;20180;-76
2021/01/28 03:01:13;;;;;;;105.57;33.87;;;;;;;;;;4993415;28;20243;-77
2021/01/28 03:03:39;;;;;;;116.97;34.73;;;;;;;;;;4993403;28;20259;-77
2021/01/28 03:06:06;;;;;;;122.30;36.33;;;;;;;;;;4993687;28;20614;-77
2021/01/28 03:08:32;;;;;;;107.77;33.70;;;;;;;;;;4992463;28;20181;-77
2021/01/28 03:11:02;;;;;;;91.70;30.63;;;;;;;;;;4976687;28;20601;-77
2021/01/28 03:13:28;;;;;;;100.37;31.13;;;;;;;;;;4992870;28;20640;-77
2021/01/28 03:15:57;;;;;;;81.33;28.13;;;;;;;;;;4976870;28;20323;-77
2021/01/28 03:18:23;;;;;;;77.87;25.27;;;;;;;;;;4993922;28;20561;-77
2021/01/28 03:20:49;;;;;;;66.80;22.63;;;;;;;;;;4993568;28;20184;-77
2021/01/28 03:23:15;;;;;;;61.07;20.73;;;;;;;;;;4993560;28;20198;-76
2021/01/28 03:25:42;;;;;;;60.07;21.00;;;;;;;;;;4977889;28;20215;-77
2021/01/28 03:28:08;;;;;;;65.43;22.00;;;;;;;;;;4993226;28;20192;-77
2021/01/28 03:30:36;;;;;;;67.87;21.50;;;;;;;;;;4991619;28;20230;-77
2021/01/28 03:33:02;;;;;;;62.17;22.17;;;;;;;;;;4992618;28;20628;-77
2021/01/28 03:35:28;;;;;;;64.50;22.87;;;;;;;;;;4976016;28;20220;-77
2021/01/28 03:37:54;;;;;;;73.20;23.77;;;;;;;;;;4991903;28;20196;-77
2021/01/28 03:40:21;;;;;;;63.53;22.43;;;;;;;;;;4990996;28;20188;-77
2021/01/28 03:42:47;;;;;;;62.03;21.27;;;;;;;;;;4992649;28;20188;-77
2021/01/28 03:45:13;;;;;;;62.57;21.03;;;;;;;;;;4976565;28;20203;-78
2021/01/28 03:47:39;;;;;;;63.13;21.03;;;;;;;;;;4992769;28;20215;-77
2021/01/28 03:50:09;;;;;;;60.20;20.60;;;;;;;;;;4992583;28;20354;-77
2021/01/28 03:52:35;;;;;;;64.80;21.77;;;;;;;;;;4991646;28;20191;-77
2021/01/28 03:55:01;;;;;;;65.40;23.33;;;;;;;;;;4975868;28;20200;-78
2021/01/28 03:57:27;;;;;;;70.67;24.10;;;;;;;;;;4991926;28;20188;-77
2021/01/28 03:59:53;;;;;;;71.70;24.40;;;;;;;;;;4976280;28;20187;-77
2021/01/28 04:02:19;;;;;;;79.10;25.07;;;;;;;;;;4976281;28;20555;-76
2021/01/28 04:04:45;;;;;;;90.93;27.50;;;;;;;;;;4976275;28;20554;-77
2021/01/28 04:07:11;;;;;;;89.67;27.80;;;;;;;;;;4992961;28;20182;-77
2021/01/28 04:09:37;;;;;;;91.80;29.83;;;;;;;;;;4992394;28;20234;-77
2021/01/28 04:12:03;;;;;;;98.80;29.97;;;;;;;;;;4992906;28;20200;-77
2021/01/28 04:14:29;;;;;;;104.53;30.10;;;;;;;;;;4976252;28;20204;-77
2021/01/28 04:16:55;;;;;;;103.50;29.77;;;;;;;;;;4993802;28;20182;-77
2021/01/28 04:19:21;;;;;;;132.67;33.30;;;;;;;;;;4976078;28;20622;-77
2021/01/28 04:21:47;;;;;;;117.20;33.67;;;;;;;;;;4975797;28;20312;-77
2021/01/28 04:24:13;;;;;;;134.63;33.57;;;;;;;;;;4976490;28;20255;-77
2021/01/28 04:26:39;;;;;;;154.27;34.60;;;;;;;;;;4992296;28;20181;-76
2021/01/28 04:29:05;;;;;;;168.80;36.70;;;;;;;;;;4992196;28;20578;-77
2021/01/28 04:31:31;;;;;;;83.97;25.53;;;;;;;;;;4992430;28;20200;-77
2021/01/28 04:33:57;;;;;;;57.67;20.20;;;;;;;;;;4976365;28;20176;-76
2021/01/28 04:36:25;;;;;;;60.47;19.93;;;;;;;;;;5016904;23;21045;-80
2021/01/28 04:38:51;;;;;;;57.80;18.40;;;;;;;;;;4977157;28;20177;-81
2021/01/28 04:41:24;;;;;;;53.47;17.47;;;;;;;;;;4993355;28;20260;-80
2021/01/28 04:43:51;;;;;;;30.13;10.87;;;;;;;;;;4994580;28;20191;-79
2021/01/28 04:46:21;;;;;;;25.60;9.83;;;;;;;;;;4994652;28;20627;-80
2021/01/28 04:48:47;;;;;;;21.40;8.60;;;;;;;;;;4993482;28;20180;-81
2021/01/28 04:51:13;;;;;;;17.07;6.80;;;;;;;;;;4977037;28;20223;-82
2021/01/28 04:53:52;;;;;;;19.50;7.10;;;;;;;;;;4982167;28;20220;-81
2021/01/28 04:56:23;;;;;;;14.37;6.83;;;;;;;;;;4981575;28;20259;-80
2021/01/28 04:58:50;;;;;;;16.90;6.37;;;;;;;;;;4981103;28;20180;-80
2021/01/28 05:01:15;;;;;;;16.77;6.90;;;;;;;;;;4980887;28;20579;-83
2021/01/28 05:03:46;;;;;;;15.07;6.97;;;;;;;;;;4980418;28;20242;-83
2021/01/28 05:06:12;;;;;;;15.33;6.83;;;;;;;;;;4980447;28;20208;-81
2021/01/28 05:08:38;;;;;;;15.33;5.73;;;;;;;;;;4980443;28;20187;-82
2021/01/28 05:11:04;;;;;;;13.87;5.00;;;;;;;;;;4996212;28;20216;-82
2021/01/28 05:13:34;;;;;;;10.43;4.73;;;;;;;;;;4980312;28;20226;-83
2021/01/28 05:16:02;;;;;;;14.80;5.27;;;;;;;;;;4995188;28;20224;-82
2021/01/28 05:18:28;;;;;;;10.50;4.67;;;;;;;;;;4995545;28;20211;-84
2021/01/28 05:21:14;;;;;;;12.83;5.30;;;;;;;;;;4995512;28;20741;-83
2021/01/28 05:23:40;;;;;;;13.97;5.03;;;;;;;;;;4993672;28;20664;-83
2021/01/28 05:26:29;;;;;;;12.57;5.00;;;;;;;;;;4980216;28;20573;-82
2021/01/28 05:28:56;;;;;;;10.47;4.37;;;;;;;;;;4979849;28;20270;-81
2021/01/28 05:31:32;;;;;;;12.53;5.07;;;;;;;;;;4995438;28;20687;-82
2021/01/28 05:34:08;;;;;;;9.40;5.13;;;;;;;;;;4995530;28;20632;-81
2021/01/28 05:36:34;;;;;;;13.10;5.37;;;;;;;;;;4978716;28;20747;-80
2021/01/28 05:39:00;;;;;;;13.17;5.27;;;;;;;;;;4995803;28;20180;-80
2021/01/28 05:41:26;;;;;;;12.90;5.30;;;;;;;;;;4994601;28;20203;-82
2021/01/28 05:43:52;;;;;;;12.17;5.83;;;;;;;;;;4996052;28;20184;-83
2021/01/28 05:46:18;;;;;;;11.30;5.10;;;;;;;;;;4995797;28;20205;-81
2021/01/28 05:48:45;;;;;;;16.67;5.57;;;;;;;;;;4994472;28;20219;-80
2021/01/28 05:51:11;;;;;;;11.23;4.90;;;;;;;;;;4995271;28;20235;-83
2021/01/28 05:53:37;;;;;;;13.43;5.00;;;;;;;;;;4995693;28;20188;-80
2021/01/28 05:56:03;;;;;;;11.23;5.17;;;;;;;;;;4972249;28;20625;-83
2021/01/28 05:58:32;;;;;;;11.50;5.13;;;;;;;;;;4993134;28;20667;-82
2021/01/28 06:00:58;;;;;;;13.30;5.13;;;;;;;;;;4996249;28;20189;-80
2021/01/28 06:03:30;;;;;;;12.80;5.13;;;;;;;;;;4994938;28;20287;-81
2021/01/28 06:06:10;;;;;;;14.33;5.53;;;;;;;;;;4995103;28;20212;-80
2021/01/28 06:08:40;;;;;;;13.20;5.63;;;;;;;;;;4979345;28;20288;-77
2021/01/28 06:11:26;;;;;;;16.83;5.77;;;;;;;;;;4992401;28;20211;-79
2021/01/28 06:14:18;;;;;;;19.43;7.00;;;;;;;;;;4990806;28;20271;-79
2021/01/28 06:16:44;;;;;;;12.90;5.57;;;;;;;;;;4991983;28;20287;-79
2021/01/28 06:19:29;;;;;;;16.83;5.93;;;;;;;;;;4993985;28;20208;-77
2021/01/28 06:21:56;;;;;;;13.43;5.43;;;;;;;;;;4994443;28;20188;-79
2021/01/28 06:24:26;;;;;;;15.77;5.77;;;;;;;;;;4993609;28;20187;-79
2021/01/28 06:27:11;;;;;;;11.50;5.03;;;;;;;;;;4978197;28;20631;-78
2021/01/28 06:29:55;;;;;;;11.60;4.67;;;;;;;;;;4992969;28;20195;-79
2021/01/28 06:32:24;;;;;;;12.07;4.70;;;;;;;;;;4994491;28;20188;-80
2021/01/28 06:34:50;;;;;;;10.97;4.27;;;;;;;;;;4993166;28;20183;-80
2021/01/28 06:37:16;;;;;;;8.23;4.33;;;;;;;;;;4993143;28;20258;-79
2021/01/28 06:39:42;;;;;;;10.30;4.13;;;;;;;;;;4993908;28;20191;-78
2021/01/28 06:42:13;;;;;;;14.50;3.83;;;;;;;;;;4977735;28;20207;-75
2021/01/28 06:44:43;;;;;;;11.63;4.03;;;;;;;;;;4998174;28;20222;-80
2021/01/28 06:47:19;;;;;;;11.40;4.30;;;;;;;;;;4977434;28;20283;-78
2021/01/28 06:49:49;;;;;;;11.70;4.40;;;;;;;;;;4976557;28;20210;-78
2021/01/28 06:52:18;;;;;;;9.20;4.53;;;;;;;;;;4993450;28;20693;-78
2021/01/28 06:54:51;;;;;;;13.60;4.93;;;;;;;;;;4995355;28;20180;-78
2021/01/28 06:57:33;;;;;;;11.47;5.00;;;;;;;;;;4979605;28;20232;-76
2021/01/28 07:00:07;;;;;;;8.37;4.43;;;;;;;;;;4993002;28;20215;-79
2021/01/28 07:02:53;;;;;;;14.50;4.50;;;;;;;;;;4997205;28;20176;-79
2021/01/28 07:05:29;;;;;;;11.43;4.70;;;;;;;;;;4992855;28;20230;-79
2021/01/28 07:07:59;;;;;;;9.13;4.93;;;;;;;;;;4996229;28;20187;-78
2021/01/28 07:10:29;;;;;;;12.60;4.70;;;;;;;;;;4979536;28;20211;-80
2021/01/28 07:12:55;;;;;;;15.00;5.23;;;;;;;;;;4997350;28;20260;-79
2021/01/28 07:15:21;;;;;;;16.07;6.17;;;;;;;;;;4977770;28;20223;-80
2021/01/28 07:17:51;;;;;;;11.60;6.00;;;;;;;;;;4994339;28;20262;-82
2021/01/28 07:20:28;;;;;;;16.40;6.13;;;;;;;;;;4977654;28;20274;-80
2021/01/28 07:22:54;;;;;;;15.10;6.63;;;;;;;;;;4979988;28;20187;-80
2021/01/28 07:25:26;;;;;;;15.73;6.47;;;;;;;;;;4980225;28;20208;-79
2021/01/28 07:28:02;;;;;;;14.87;5.53;;;;;;;;;;4995710;28;20284;-80
2021/01/28 07:30:34;;;;;;;13.03;6.00;;;;;;;;;;4977643;28;20249;-79
2021/01/28 07:33:00;;;;;;;13.47;5.63;;;;;;;;;;4993718;28;20550;-80
2021/01/28 07:35:26;;;;;;;14.63;6.30;;;;;;;;;;4977531;28;20200;-80
2021/01/28 07:37:56;;;;;;;15.60;6.33;;;;;;;;;;4994138;28;20551;-81
2021/01/28 07:40:40;;;;;;;13.07;6.27;;;;;;;;;;4992294;28;20632;-76
2021/01/28 07:43:06;;;;;;;12.83;6.70;;;;;;;;;;4995322;28;20187;-76
2021/01/28 07:45:33;;;;;;;12.90;6.10;;;;;;;;;;4993566;28;20204;-81
2021/01/28 07:47:59;;;;;;;16.67;7.07;;;;;;;;;;4992928;28;20550;-79
2021/01/28 07:50:35;;;;;;;15.97;6.83;;;;;;;;;;4975670;28;20211;-79
2021/01/28 07:53:28;;;;;;;18.00;7.60;;;;;;;;;;4975925;28;20183;-79
2021/01/28 07:55:54;;;;;;;16.50;8.10;;;;;;;;;;4992132;28;20654;-79
2021/01/28 07:58:21;;;;;;;18.03;8.10;;;;;;;;;;4975663;28;20259;-80
2021/01/28 08:00:47;;;;;;;15.53;9.20;;;;;;;;;;4975689;28;20223;-82
2021/01/28 08:03:15;;;;;;;28.93;12.87;;;;;;;;;;4976525;28;20186;-79
2021/01/28 08:05:41;;;;;;;21.53;10.20;;;;;;;;;;4977379;28;20223;-81
2021/01/28 08:08:08;;;;;;;22.93;10.60;;;;;;;;;;4993545;28;20188;-78
2021/01/28 08:10:38;;;;;;;24.37;11.37;;;;;;;;;;4994613;28;20581;-78
2021/01/28 08:13:04;;;;;;;23.57;10.10;;;;;;;;;;4991554;28;20644;-77
2021/01/28 08:15:36;;;;;;;25.03;10.80;;;;;;;;;;4992786;28;20207;-80
2021/01/28 08:18:20;;;;;;;23.87;10.60;;;;;;;;;;4992787;28;20628;-78
2021/01/28 08:20:46;;;;;;;21.40;9.77;;;;;;;;;;4992129;28;20205;-79
2021/01/28 08:23:16;;;;;;;25.60;10.07;;;;;;;;;;4991447;28;20225;-80
2021/01/28 08:26:02;;;;;;;17.93;9.50;;;;;;;;;;4993552;28;20220;-77
2021/01/28 08:28:32;;;;;;;19.47;9.70;;;;;;;;;;4997872;28;20265;-77
2021/01/28 08:30:59;;;;;;;25.03;10.40;;;;;;;;;;4997854;28;20566;-79
2021/01/28 08:33:26;;;;;;;25.20;10.60;;;;;;;;;;4997030;28;20591;-81
2021/01/28 08:35:54;;;;;;;20.53;8.87;;;;;;;;;;4998631;28;20211;-79
2021/01/28 08:38:22;;;;;;;20.70;10.13;;;;;;;;;;4997723;28;20186;-85
2021/01/28 08:41:05;;;;;;;21.63;9.97;;;;;;;;;;4996502;28;20702;-80
2021/01/28 08:43:31;;;;;;;20.77;9.47;;;;;;;;;;4996750;28;20188;-80
2021/01/28 08:46:07;;;;;;;19.23;9.13;;;;;;;;;;4979957;28;20208;-77
2021/01/28 08:48:33;;;;;;;19.83;9.90;;;;;;;;;;4997774;28;20180;-81
2021/01/28 08:51:19;;;;;;;21.57;10.20;;;;;;;;;;4998918;28;20210;-82
2021/01/28 08:53:46;;;;;;;19.67;9.77;;;;;;;;;;4985551;28;20223;-80
2021/01/28 08:56:18;;;;;;;24.33;11.50;;;;;;;;;;4977482;28;20645;-79
2021/01/28 08:58:44;;;;;;;22.07;9.77;;;;;;;;;;4976495;28;20264;-78
2021/01/28 09:01:13;;;;;;;19.87;9.73;;;;;;;;;;4976823;28;20211;-78
2021/01/28 09:03:45;;;;;;;24.60;9.77;;;;;;;;;;4976112;28;20207;-76
2021/01/28 09:06:11;;;;;;;21.37;9.47;;;;;;;;;;4976180;28;20242;-77
2021/01/28 09:08:40;;;;;;;19.10;9.37;;;;;;;;;;4970176;28;20188;-76
2021/01/28 09:11:14;;;;;;;20.07;8.97;;;;;;;;;;4994868;28;20578;-77
2021/01/28 09:13:40;;;;;;;20.97;9.53;;;;;;;;;;4979395;28;20178;-77
2021/01/28 09:16:06;;;;;;;19.33;9.17;;;;;;;;;;4979025;28;20203;-77
2021/01/28 09:18:33;;;;;;;24.80;9.60;;;;;;;;;;4996451;28;20181;-77
2021/01/28 09:21:06;;;;;;;19.00;8.50;;;;;;;;;;4978468;28;20191;-76
2021/01/28 09:23:32;;;;;;;22.30;9.10;;;;;;;;;;4978895;28;20191;-79
2021/01/28 09:26:11;;;;;;;21.20;8.93;;;;;;;;;;4996857;28;20578;-77
2021/01/28 09:28:37;;;;;;;21.93;9.13;;;;;;;;;;4996065;28;20698;-78
2021/01/28 09:31:18;;;;;;;18.87;9.67;;;;;;;;;;4994031;28;20237;-76
2021/01/28 09:33:44;;;;;;;23.07;9.70;;;;;;;;;;4996545;28;20168;-85
2021/01/28 09:36:21;;;;;;;19.33;9.03;;;;;;;;;;5001964;28;20294;-80
2021/01/28 09:39:06;;;;;;;17.90;9.67;;;;;;;;;;4984692;28;20668;-79
2021/01/28 09:41:38;;;;;;;21.07;9.10;;;;;;;;;;5001683;28;20182;-80
2021/01/28 09:44:05;;;;;;;17.80;8.90;;;;;;;;;;5001285;28;20270;-78
2021/01/28 09:46:31;;;;;;;24.00;9.20;;;;;;;;;;5000831;28;20241;-80
2021/01/28 09:48:58;;;;;;;18.37;9.37;;;;;;;;;;4999868;28;20191;-81
2021/01/28 09:51:36;;;;;;;21.43;9.90;;;;;;;;;;4999224;28;20190;-81
2021/01/28 09:54:12;;;;;;;21.50;9.00;;;;;;;;;;5000403;28;20604;-80
2021/01/28 09:56:38;;;;;;;24.60;9.90;;;;;;;;;;4998372;28;20206;-77
2021/01/28 09:59:04;;;;;;;22.63;9.50;;;;;;;;;;4978425;28;20207;-77
2021/01/28 10:01:30;;;;;;;17.90;9.03;;;;;;;;;;4994239;28;20342;-75
2021/01/28 10:03:56;;;;;;;19.13;9.23;;;;;;;;;;4993062;28;20238;-79
2021/01/28 10:06:22;;;;;;;19.43;9.77;;;;;;;;;;4993237;28;20210;-80
2021/01/28 10:08:48;;;;;;;21.03;9.63;;;;;;;;;;4993519;28;20187;-78
2021/01/28 10:11:14;;;;;;;19.20;9.93;;;;;;;;;;4993667;28;20196;-78
2021/01/28 10:13:40;;;;;;;18.10;9.47;;;;;;;;;;4979631;28;20739;-75
2021/01/28 10:16:06;;;;;;;20.03;8.63;;;;;;;;;;4982249;28;20227;-76
2021/01/28 10:18:32;;;;;;;17.97;8.80;;;;;;;;;;4975476;28;20644;-78
2021/01/28 10:20:57;;;;;;;23.97;9.90;;;;;;;;;;4975058;28;20191;-78
2021/01/28 10:23:23;;;;;;;20.43;9.83;;;;;;;;;;4975832;28;20177;-79
2021/01/28 10:25:49;;;;;;;18.93;9.00;;;;;;;;;;4974865;28;20205;-79
2021/01/28 10:28:15;;;;;;;20.60;9.87;;;;;;;;;;4974496;28;20564;-78
2021/01/28 10:30:41;;;;;;;20.30;9.60;;;;;;;;;;4974215;28;20215;-79
2021/01/28 10:33:08;;;;;;;19.33;10.17;;;;;;;;;;4976061;28;20187;-81
2021/01/28 10:35:34;;;;;;;23.83;10.57;;;;;;;;;;4974234;28;20211;-80
2021/01/28 10:38:01;;;;;;;22.07;10.63;;;;;;;;;;4974452;28;20185;-81
2021/01/28 10:40:27;;;;;;;22.20;10.93;;;;;;;;;;4973647;28;20187;-80
2021/01/28 10:42:53;;;;;;;22.70;11.43;;;;;;;;;;4975656;28;20644;-79
2021/01/28 10:45:20;;;;;;;21.33;11.17;;;;;;;;;;4976954;28;20246;-80
2021/01/28 10:47:46;;;;;;;23.20;11.30;;;;;;;;;;4993182;28;20222;-79
2021/01/28 10:50:12;;;;;;;21.10;11.57;;;;;;;;;;4973722;28;20208;-80
2021/01/28 10:52:38;;;;;;;22.50;11.83;;;;;;;;;;4976922;28;20188;-82
2021/01/28 10:55:05;;;;;;;21.57;11.27;;;;;;;;;;4976468;28;20226;-80
2021/01/28 10:57:31;;;;;;;21.67;11.03;;;;;;;;;;4978131;28;20579;-78
2021/01/28 10:59:57;;;;;;;21.67;11.77;;;;;;;;;;4978398;28;20246;-81
2021/01/28 11:02:23;;;;;;;20.30;11.10;;;;;;;;;;4979681;28;20176;-78
2021/01/28 11:04:49;;;;;;;16.33;9.73;;;;;;;;;;4995100;28;20619;-81
2021/01/28 11:07:15;;;;;;;17.93;10.53;;;;;;;;;;4993623;28;20196;-81
2021/01/28 11:09:42;;;;;;;20.20;11.87;;;;;;;;;;4993166;28;20594;-79
2021/01/28 11:12:09;;;;;;;19.00;10.73;;;;;;;;;;4975215;28;20227;-83
2021/01/28 11:14:35;;;;;;;17.37;9.77;;;;;;;;;;4995948;28;20180;-83
2021/01/28 11:17:01;;;;;;;15.93;9.53;;;;;;;;;;4976994;28;20209;-81
2021/01/28 11:19:27;;;;;;;17.93;9.47;;;;;;;;;;4975179;28;20187;-79
2021/01/28 11:21:53;;;;;;;15.60;8.87;;;;;;;;;;4973866;28;20547;-82
2021/01/28 11:24:19;;;;;;;13.67;7.93;;;;;;;;;;4975445;28;20184;-77
2021/01/28 11:26:45;;;;;;;15.30;8.93;;;;;;;;;;4988888;28;20204;-75
2021/01/28 11:29:11;;;;;;;13.97;8.77;;;;;;;;;;4992124;28;20191;-77
2021/01/28 11:31:37;;;;;;;15.10;8.33;;;;;;;;;;5005811;28;20424;-79
2021/01/28 11:34:03;;;;;;;14.97;8.97;;;;;;;;;;4991759;28;20259;-76
2021/01/28 11:36:29;;;;;;;15.17;8.73;;;;;;;;;;4974145;28;20219;-75
2021/01/28 11:38:55;;;;;;;15.43;9.00;;;;;;;;;;4975175;28;20179;-78
2021/01/28 11:41:21;;;;;;;14.17;8.67;;;;;;;;;;4991350;28;20199;-79
2021/01/28 11:43:47;;;;;;;12.83;8.50;;;;;;;;;;4975615;28;20617;-78
2021/01/28 11:46:13;;;;;;;13.83;8.83;;;;;;;;;;4992327;28;20196;-78
2021/01/28 11:48:39;;;;;;;16.30;8.53;;;;;;;;;;4991516;28;20214;-78
2021/01/28 11:51:05;;;;;;;16.20;9.40;;;;;;;;;;4991392;28;20212;-78
2021/01/28 11:53:31;;;;;;;12.80;8.20;;;;;;;;;;4975411;28;20177;-76
2021/01/28 11:55:57;;;;;;;11.07;7.80;;;;;;;;;;4991055;28;20211;-77
2021/01/28 11:58:23;;;;;;;12.40;7.47;;;;;;;;;;4991369;28;20548;-78
2021/01/28 12:00:51;;;;;;;13.97;8.47;;;;;;;;;;4990703;28;20247;-79
2021/01/28 12:03:17;;;;;;;13.13;7.80;;;;;;;;;;4991232;28;20191;-78
2021/01/28 12:05:43;;;;;;;12.67;7.47;;;;;;;;;;4992512;28;20200;-77
2021/01/28 12:08:08;;;;;;;13.50;7.30;;;;;;;;;;4991056;28;20187;-79
2021/01/28 12:10:34;;;;;;;14.20;8.10;;;;;;;;;;4992152;28;20239;-74
2021/01/28 12:13:00;;;;;;;11.97;8.30;;;;;;;;;;4991270;28;20636;-79
2021/01/28 12:15:26;;;;;;;13.83;8.23;;;;;;;;;;4991077;28;20199;-77
2021/01/28 12:17:53;;;;;;;12.77;7.63;;;;;;;;;;4991252;28;20699;-77
2021/01/28 12:20:20;;;;;;;11.10;7.00;;;;;;;;;;4991155;28;20204;-77
2021/01/28 12:22:46;;;;;;;16.07;9.53;;;;;;;;;;4991175;28;20529;-78
2021/01/28 12:25:12;;;;;;;11.67;7.43;;;;;;;;;;4991703;28;20202;-78
2021/01/28 12:27:38;;;;;;;15.30;7.97;;;;;;;;;;4992418;28;20185;-78
2021/01/28 12:30:05;;;;;;;12.23;7.57;;;;;;;;;;4974779;28;20544;-79
2021/01/28 12:32:31;;;;;;;11.03;6.93;;;;;;;;;;4991176;28;20201;-77
2021/01/28 12:34:56;;;;;;;11.67;7.37;;;;;;;;;;4996017;28;20629;-77
2021/01/28 12:37:22;;;;;;;11.47;6.93;;;;;;;;;;4997001;28;20179;-79
2021/01/28 12:39:48;;;;;;;11.97;7.23;;;;;;;;;;4980035;28;20180;-77
2021/01/28 12:42:14;;;;;;;12.07;7.30;;;;;;;;;;4980336;28;20187;-79
2021/01/28 12:44:41;;;;;;;11.90;7.00;;;;;;;;;;4978538;28;20191;-78
2021/01/28 12:47:07;;;;;;;11.87;7.73;;;;;;;;;;4992849;28;20203;-76
2021/01/28 12:49:33;;;;;;;11.63;7.30;;;;;;;;;;4990857;28;20258;-75
2021/01/28 12:51:58;;;;;;;11.50;7.70;;;;;;;;;;4991526;28;20274;-78
2021/01/28 12:54:24;;;;;;;11.57;7.93;;;;;;;;;;4991223;28;20177;-75
2021/01/28 12:56:50;;;;;;;11.73;7.60;;;;;;;;;;4994057;28;20208;-80
2021/01/28 12:59:17;;;;;;;12.27;7.63;;;;;;;;;;4981252;28;20644;-81
2021/01/28 13:01:43;;;;;;;11.60;7.40;;;;;;;;;;4995349;28;20186;-80
2021/01/28 13:04:09;;;;;;;9.40;6.63;;;;;;;;;;4979778;28;20227;-85
2021/01/28 13:06:35;;;;;;;10.43;6.60;;;;;;;;;;4995806;28;20570;-84
2021/01/28 13:09:01;;;;;;;11.83;6.30;;;;;;;;;;4980020;28;20188;-80
2021/01/28 13:11:27;;;;;;;7.57;5.67;;;;;;;;;;4978657;28;20221;-82
2021/01/28 13:13:53;;;;;;;9.43;6.00;;;;;;;;;;4981923;28;20601;-79
2021/01/28 13:16:19;;;;;;;9.60;5.93;;;;;;;;;;4996166;28;20204;-78
2021/01/28 13:18:45;;;;;;;8.93;6.00;;;;;;;;;;4996792;28;20196;-79
2021/01/28 13:21:11;;;;;;;9.40;6.40;;;;;;;;;;4981830;28;20184;-80
2021/01/28 13:23:37;;;;;;;8.57;5.60;;;;;;;;;;4980693;28;20202;-78
2021/01/28 13:26:03;;;;;;;8.37;6.33;;;;;;;;;;4995193;28;20634;-81
2021/01/28 13:28:29;;;;;;;9.00;6.40;;;;;;;;;;4995507;28;20189;-81
2021/01/28 13:30:55;;;;;;;10.27;6.63;;;;;;;;;;4994552;28;20265;-83
2021/01/28 13:33:21;;;;;;;8.33;6.10;;;;;;;;;;4995993;28;20223;-83
2021/01/28 13:35:47;;;;;;;10.20;7.40;;;;;;;;;;4994812;28;20683;-82
2021/01/28 13:38:14;;;;;;;9.77;7.33;;;;;;;;;;4980540;28;20177;-85
2021/01/28 13:40:41;;;;;;;8.03;6.30;;;;;;;;;;4980985;28;20184;-83
2021/01/28 13:43:06;;;;;;;8.07;6.30;;;;;;;;;;4997319;28;20195;-82
2021/01/28 13:45:32;;;;;;;7.30;5.93;;;;;;;;;;4995869;28;20204;-78
2021/01/28 13:48:01;;;;;;;7.10;5.43;;;;;;;;;;4993806;28;20202;-79
2021/01/28 13:50:28;;;;;;;7.13;5.80;;;;;;;;;;4993487;28;20257;-78
2021/01/28 13:52:54;;;;;;;8.17;6.23;;;;;;;;;;4975984;28;20207;-78
2021/01/28 13:55:20;;;;;;;7.70;5.70;;;;;;;;;;4988051;28;20204;-77
2021/01/28 13:57:46;;;;;;;7.97;5.83;;;;;;;;;;4993121;28;20195;-78
2021/01/28 14:00:12;;;;;;;8.57;6.07;;;;;;;;;;4993234;28;20601;-81
2021/01/28 14:02:38;;;;;;;8.73;6.43;;;;;;;;;;4992959;28;20275;-80
2021/01/28 14:05:05;;;;;;;8.07;6.17;;;;;;;;;;4976408;28;20180;-80
2021/01/28 14:07:31;;;;;;;8.87;6.60;;;;;;;;;;4994122;28;20188;-78
2021/01/28 14:09:57;;;;;;;9.37;6.37;;;;;;;;;;4994716;28;20190;-78
2021/01/28 14:12:23;;;;;;;7.90;6.00;;;;;;;;;;4995024;28;20177;-77
2021/01/28 14:14:49;;;;;;;9.23;6.57;;;;;;;;;;4993050;28;20179;-78
2021/01/28 14:17:15;;;;;;;8.33;6.10;;;;;;;;;;4994322;28;20181;-79
2021/01/28 14:19:40;;;;;;;8.57;6.30;;;;;;;;;;4993142;28;20180;-77
2021/01/28 14:22:06;;;;;;;8.20;5.93;;;;;;;;;;4994067;28;20176;-78
2021/01/28 14:24:32;;;;;;;6.77;5.50;;;;;;;;;;4995230;28;20184;-79
2021/01/28 14:27:00;;;;;;;6.23;4.97;;;;;;;;;;4994966;28;20269;-78
2021/01/28 14:29:26;;;;;;;6.47;5.23;;;;;;;;;;5010037;28;20656;-78
2021/01/28 14:31:52;;;;;;;7.40;5.77;;;;;;;;;;4993262;28;20232;-80